createdAt,value
2023-05-05T00:19:06.720Z,20
2023-05-05T00:48:09.284Z,20
2023-05-05T01:17:19.188Z,22
2023-05-05T01:46:32.336Z,20
2023-05-05T02:15:42.777Z,19
2023-05-05T02:44:55.091Z,20
2023-05-05T03:14:00.670Z,19
2023-05-05T03:43:19.139Z,20
2023-05-05T04:12:38.724Z,16
2023-05-05T04:41:55.437Z,21
2023-05-05T05:11:17.138Z,19
2023-05-05T05:40:40.102Z,17
2023-05-05T06:10:18.981Z,16
2023-05-05T06:38:55.996Z,17
2023-05-05T07:08:20.013Z,18
2023-05-05T07:37:37.270Z,18
2023-05-05T08:06:48.729Z,19
2023-05-05T08:36:01.425Z,16
2023-05-05T09:05:19.315Z,20
2023-05-05T09:34:37.304Z,17
2023-05-05T10:03:49.732Z,14
2023-05-05T10:34:19.416Z,10
2023-05-05T11:02:57.531Z,10
2023-05-05T11:31:59.205Z,11
2023-05-05T12:01:20.313Z,11
2023-05-05T12:30:39.867Z,10
2023-05-05T12:59:39.633Z,12
2023-05-05T13:28:53.669Z,10
2023-05-05T13:58:07.667Z,10
2023-05-05T14:27:10.958Z,16
2023-05-05T14:56:15.970Z,13
2023-05-05T15:25:16.630Z,16
2023-05-05T15:54:24.577Z,14
2023-05-05T16:23:31.516Z,22
2023-05-05T16:52:39.495Z,18
2023-05-05T17:21:50.749Z,17
2023-05-05T17:50:55.146Z,10
2023-05-05T18:20:05.656Z,14
2023-05-05T18:49:09.045Z,14
2023-05-05T19:18:16.633Z,13
2023-05-05T19:47:19.788Z,17
2023-05-05T20:16:30.385Z,12
2023-05-05T20:45:35.725Z,7
2023-05-05T21:14:47.676Z,10
2023-05-05T21:43:50.999Z,13
2023-05-05T22:13:03.339Z,11
2023-05-05T22:42:04.081Z,9
2023-05-05T23:11:14.217Z,10
2023-05-05T23:40:21.264Z,10
